sensor_id;sensor_type;location;lat;lon;timestamp;pressure;altitude;pressure_sealevel;temperature;humidity
41218;BME280;26950;50.960;7.138;2022-07-23T00:02:13;100734.38;;;25.79;44.92
41218;BME280;26950;50.960;7.138;2022-07-23T00:04:40;100735.25;;;25.79;45.04
41218;BME280;26950;50.960;7.138;2022-07-23T00:07:06;100745.06;;;25.80;44.89
41218;BME280;26950;50.960;7.138;2022-07-23T00:09:33;100730.94;;;25.74;44.76
41218;BME280;26950;50.960;7.138;2022-07-23T00:11:59;100730.13;;;25.70;45.16
41218;BME280;26950;50.960;7.138;2022-07-23T00:14:26;100734.47;;;25.76;45.05
41218;BME280;26950;50.960;7.138;2022-07-23T00:16:53;100739.84;;;25.76;45.18
41218;BME280;26950;50.960;7.138;2022-07-23T00:19:20;100734.25;;;25.82;44.99
41218;BME280;26950;50.960;7.138;2022-07-23T00:21:46;100740.41;;;25.86;44.76
41218;BME280;26950;50.960;7.138;2022-07-23T00:24:13;100745.00;;;25.82;44.93
41218;BME280;26950;50.960;7.138;2022-07-23T00:26:39;100732.44;;;25.82;45.26
41218;BME280;26950;50.960;7.138;2022-07-23T00:29:06;100744.97;;;25.84;45.23
41218;BME280;26950;50.960;7.138;2022-07-23T00:31:32;100734.94;;;25.89;44.89
41218;BME280;26950;50.960;7.138;2022-07-23T00:34:00;100737.16;;;25.76;45.72
41218;BME280;26950;50.960;7.138;2022-07-23T00:36:27;100738.97;;;25.75;45.63
41218;BME280;26950;50.960;7.138;2022-07-23T00:38:54;100731.75;;;25.77;45.59
41218;BME280;26950;50.960;7.138;2022-07-23T00:41:21;100740.56;;;25.81;45.26
41218;BME280;26950;50.960;7.138;2022-07-23T00:43:48;100733.56;;;25.75;45.11
41218;BME280;26950;50.960;7.138;2022-07-23T00:46:19;100736.94;;;25.82;45.07
41218;BME280;26950;50.960;7.138;2022-07-23T00:48:45;100733.53;;;25.77;45.68
41218;BME280;26950;50.960;7.138;2022-07-23T00:51:14;100731.94;;;25.70;45.78
41218;BME280;26950;50.960;7.138;2022-07-23T00:53:41;100730.06;;;25.73;45.68
41218;BME280;26950;50.960;7.138;2022-07-23T00:56:08;100735.88;;;25.60;45.83
41218;BME280;26950;50.960;7.138;2022-07-23T00:58:35;100735.56;;;25.69;45.64
41218;BME280;26950;50.960;7.138;2022-07-23T01:01:02;100742.94;;;25.62;45.89
41218;BME280;26950;50.960;7.138;2022-07-23T01:03:28;100726.06;;;25.57;46.07
41218;BME280;26950;50.960;7.138;2022-07-23T01:05:55;100729.66;;;25.58;46.26
41218;BME280;26950;50.960;7.138;2022-07-23T01:08:23;100733.94;;;25.63;46.27
41218;BME280;26950;50.960;7.138;2022-07-23T01:10:50;100735.63;;;25.67;46.04
41218;BME280;26950;50.960;7.138;2022-07-23T01:13:17;100741.06;;;25.64;46.75
41218;BME280;26950;50.960;7.138;2022-07-23T01:15:43;100737.75;;;25.56;46.58
41218;BME280;26950;50.960;7.138;2022-07-23T01:18:10;100737.00;;;25.52;46.62
41218;BME280;26950;50.960;7.138;2022-07-23T01:20:37;100729.81;;;25.53;46.37
41218;BME280;26950;50.960;7.138;2022-07-23T01:23:05;100730.78;;;25.50;46.23
41218;BME280;26950;50.960;7.138;2022-07-23T01:25:32;100728.16;;;25.49;46.38
41218;BME280;26950;50.960;7.138;2022-07-23T01:27:58;100724.72;;;25.44;46.41
41218;BME280;26950;50.960;7.138;2022-07-23T01:30:25;100723.91;;;25.42;46.50
41218;BME280;26950;50.960;7.138;2022-07-23T01:32:51;100727.53;;;25.41;46.57
41218;BME280;26950;50.960;7.138;2022-07-23T01:35:18;100724.78;;;25.42;47.23
41218;BME280;26950;50.960;7.138;2022-07-23T01:37:44;100722.97;;;25.43;47.34
41218;BME280;26950;50.960;7.138;2022-07-23T01:40:12;100706.97;;;25.40;47.75
41218;BME280;26950;50.960;7.138;2022-07-23T01:42:38;100699.97;;;25.34;48.04
41218;BME280;26950;50.960;7.138;2022-07-23T01:45:06;100700.94;;;25.32;48.53
41218;BME280;26950;50.960;7.138;2022-07-23T01:47:32;100701.13;;;25.25;49.42
41218;BME280;26950;50.960;7.138;2022-07-23T01:49:59;100713.81;;;25.20;49.91
41218;BME280;26950;50.960;7.138;2022-07-23T01:52:25;100705.91;;;25.16;50.03
41218;BME280;26950;50.960;7.138;2022-07-23T01:54:52;100702.50;;;25.11;50.05
41218;BME280;26950;50.960;7.138;2022-07-23T01:57:19;100703.50;;;25.07;50.51
41218;BME280;26950;50.960;7.138;2022-07-23T01:59:46;100697.31;;;25.03;50.31
41218;BME280;26950;50.960;7.138;2022-07-23T02:02:12;100700.94;;;25.02;50.43
41218;BME280;26950;50.960;7.138;2022-07-23T02:04:39;100702.94;;;24.95;51.14
41218;BME280;26950;50.960;7.138;2022-07-23T02:07:05;100706.50;;;24.96;51.12
41218;BME280;26950;50.960;7.138;2022-07-23T02:09:32;100709.06;;;24.99;51.29
41218;BME280;26950;50.960;7.138;2022-07-23T02:11:59;100716.38;;;24.94;51.67
41218;BME280;26950;50.960;7.138;2022-07-23T02:14:26;100718.13;;;24.95;51.62
41218;BME280;26950;50.960;7.138;2022-07-23T02:16:53;100712.56;;;25.01;51.75
41218;BME280;26950;50.960;7.138;2022-07-23T02:19:19;100711.81;;;24.97;52.17
41218;BME280;26950;50.960;7.138;2022-07-23T02:21:46;100715.88;;;24.81;52.29
41218;BME280;26950;50.960;7.138;2022-07-23T02:24:12;100710.06;;;24.65;52.71
41218;BME280;26950;50.960;7.138;2022-07-23T02:26:39;100698.72;;;24.56;52.63
41218;BME280;26950;50.960;7.138;2022-07-23T02:29:05;100699.00;;;24.45;52.92
41218;BME280;26950;50.960;7.138;2022-07-23T02:31:33;100703.59;;;24.41;52.88
41218;BME280;26950;50.960;7.138;2022-07-23T02:34:00;100689.38;;;24.38;53.06
41218;BME280;26950;50.960;7.138;2022-07-23T02:36:27;100688.59;;;24.34;53.39
41218;BME280;26950;50.960;7.138;2022-07-23T02:38:54;100704.63;;;24.36;53.48
41218;BME280;26950;50.960;7.138;2022-07-23T02:41:20;100705.41;;;24.41;53.76
41218;BME280;26950;50.960;7.138;2022-07-23T02:43:47;100708.84;;;24.44;53.60
41218;BME280;26950;50.960;7.138;2022-07-23T02:46:13;100711.38;;;24.51;54.07
41218;BME280;26950;50.960;7.138;2022-07-23T02:48:41;100712.19;;;24.54;53.80
41218;BME280;26950;50.960;7.138;2022-07-23T02:51:07;100712.34;;;24.48;53.83
41218;BME280;26950;50.960;7.138;2022-07-23T02:53:34;100714.22;;;24.46;53.88
41218;BME280;26950;50.960;7.138;2022-07-23T02:56:00;100714.16;;;24.47;53.71
41218;BME280;26950;50.960;7.138;2022-07-23T02:58:27;100711.81;;;24.35;54.17
41218;BME280;26950;50.960;7.138;2022-07-23T03:00:54;100708.91;;;24.43;54.06
41218;BME280;26950;50.960;7.138;2022-07-23T03:03:20;100706.00;;;24.51;53.97
41218;BME280;26950;50.960;7.138;2022-07-23T03:05:48;100702.31;;;24.55;53.90
41218;BME280;26950;50.960;7.138;2022-07-23T03:08:14;100697.75;;;24.58;53.78
41218;BME280;26950;50.960;7.138;2022-07-23T03:10:41;100688.78;;;24.59;53.29
41218;BME280;26950;50.960;7.138;2022-07-23T03:13:07;100698.47;;;24.65;53.24
41218;BME280;26950;50.960;7.138;2022-07-23T03:15:34;100694.09;;;24.61;53.02
41218;BME280;26950;50.960;7.138;2022-07-23T03:18:00;100694.16;;;24.59;53.27
41218;BME280;26950;50.960;7.138;2022-07-23T03:20:26;100698.63;;;24.59;52.91
41218;BME280;26950;50.960;7.138;2022-07-23T03:22:54;100703.19;;;24.55;52.88
41218;BME280;26950;50.960;7.138;2022-07-23T03:25:21;100702.31;;;24.55;52.62
41218;BME280;26950;50.960;7.138;2022-07-23T03:27:47;100701.50;;;24.51;52.66
41218;BME280;26950;50.960;7.138;2022-07-23T03:30:14;100706.88;;;24.51;52.60
41218;BME280;26950;50.960;7.138;2022-07-23T03:32:40;100706.88;;;24.51;52.70
41218;BME280;26950;50.960;7.138;2022-07-23T03:35:08;100713.19;;;24.50;52.46
41218;BME280;26950;50.960;7.138;2022-07-23T03:37:34;100711.47;;;24.47;52.34
41218;BME280;26950;50.960;7.138;2022-07-23T03:40:03;100713.31;;;24.45;52.40
41218;BME280;26950;50.960;7.138;2022-07-23T03:42:29;100718.88;;;24.39;52.51
41218;BME280;26950;50.960;7.138;2022-07-23T03:44:56;100710.75;;;24.41;52.79
41218;BME280;26950;50.960;7.138;2022-07-23T03:47:22;100716.13;;;24.41;52.56
41218;BME280;26950;50.960;7.138;2022-07-23T03:49:49;100709.03;;;24.38;52.47
41218;BME280;26950;50.960;7.138;2022-07-23T03:52:15;100713.66;;;24.32;52.47
41218;BME280;26950;50.960;7.138;2022-07-23T03:54:42;100718.22;;;24.28;52.52
41218;BME280;26950;50.960;7.138;2022-07-23T03:57:10;100710.34;;;24.22;52.56
41218;BME280;26950;50.960;7.138;2022-07-23T03:59:36;100716.66;;;24.19;52.72
41218;BME280;26950;50.960;7.138;2022-07-23T04:02:03;100717.72;;;24.14;52.75
41218;BME280;26950;50.960;7.138;2022-07-23T04:04:29;100711.72;;;24.04;52.84
41218;BME280;26950;50.960;7.138;2022-07-23T04:06:56;100712.28;;;23.83;53.97
41218;BME280;26950;50.960;7.138;2022-07-23T04:09:22;100710.28;;;23.91;53.59
41218;BME280;26950;50.960;7.138;2022-07-23T04:11:48;100720.34;;;23.81;53.67
41218;BME280;26950;50.960;7.138;2022-07-23T04:14:16;100717.69;;;23.80;53.62
41218;BME280;26950;50.960;7.138;2022-07-23T04:16:43;100715.84;;;23.82;53.60
41218;BME280;26950;50.960;7.138;2022-07-23T04:19:09;100719.31;;;23.87;53.53
41218;BME280;26950;50.960;7.138;2022-07-23T04:21:35;100720.28;;;23.84;53.70
41218;BME280;26950;50.960;7.138;2022-07-23T04:24:02;100721.31;;;23.79;53.56
41218;BME280;26950;50.960;7.138;2022-07-23T04:26:30;100727.63;;;23.76;53.83
41218;BME280;26950;50.960;7.138;2022-07-23T04:28:56;100728.38;;;23.83;53.47
41218;BME280;26950;50.960;7.138;2022-07-23T04:31:24;100738.06;;;23.87;53.29
41218;BME280;26950;50.960;7.138;2022-07-23T04:33:51;100735.38;;;23.87;53.21
41218;BME280;26950;50.960;7.138;2022-07-23T04:36:17;100742.50;;;23.89;53.25
41218;BME280;26950;50.960;7.138;2022-07-23T04:38:43;100746.25;;;23.81;53.60
41218;BME280;26950;50.960;7.138;2022-07-23T04:41:10;100747.31;;;23.74;53.88
41218;BME280;26950;50.960;7.138;2022-07-23T04:43:36;100761.47;;;23.80;53.79
41218;BME280;26950;50.960;7.138;2022-07-23T04:46:03;100763.41;;;23.74;53.97
41218;BME280;26950;50.960;7.138;2022-07-23T04:48:31;100761.88;;;23.63;54.17
41218;BME280;26950;50.960;7.138;2022-07-23T04:50:57;100769.13;;;23.57;54.57
41218;BME280;26950;50.960;7.138;2022-07-23T04:53:24;100772.47;;;23.68;54.45
41218;BME280;26950;50.960;7.138;2022-07-23T04:55:50;100777.72;;;23.73;54.31
41218;BME280;26950;50.960;7.138;2022-07-23T04:58:17;100777.69;;;23.74;54.28
41218;BME280;26950;50.960;7.138;2022-07-23T05:00:43;100777.63;;;23.77;54.17
41218;BME280;26950;50.960;7.138;2022-07-23T05:03:10;100787.34;;;23.81;53.92
41218;BME280;26950;50.960;7.138;2022-07-23T05:05:38;100787.16;;;23.89;54.00
41218;BME280;26950;50.960;7.138;2022-07-23T05:08:04;100785.81;;;23.71;54.45
41218;BME280;26950;50.960;7.138;2022-07-23T05:10:31;100789.38;;;23.72;54.50
41218;BME280;26950;50.960;7.138;2022-07-23T05:12:57;100788.44;;;23.73;54.58
41218;BME280;26950;50.960;7.138;2022-07-23T05:15:24;100796.44;;;23.74;54.67
41218;BME280;26950;50.960;7.138;2022-07-23T05:17:50;100797.91;;;23.89;54.22
41218;BME280;26950;50.960;7.138;2022-07-23T05:20:17;100799.50;;;23.96;54.11
41218;BME280;26950;50.960;7.138;2022-07-23T05:22:45;100799.34;;;24.02;54.08
41218;BME280;26950;50.960;7.138;2022-07-23T05:25:11;100795.97;;;23.94;54.14
41218;BME280;26950;50.960;7.138;2022-07-23T05:27:37;100800.44;;;23.95;54.41
41218;BME280;26950;50.960;7.138;2022-07-23T05:30:05;100803.00;;;23.98;54.28
41218;BME280;26950;50.960;7.138;2022-07-23T05:32:32;100800.44;;;23.95;54.27
41218;BME280;26950;50.960;7.138;2022-07-23T05:34:58;100798.25;;;23.74;55.09
41218;BME280;26950;50.960;7.138;2022-07-23T05:37:25;100807.84;;;24.19;53.85
41218;BME280;26950;50.960;7.138;2022-07-23T05:39:53;100802.16;;;24.32;53.28
41218;BME280;26950;50.960;7.138;2022-07-23T05:42:19;100807.53;;;24.32;53.39
41218;BME280;26950;50.960;7.138;2022-07-23T05:44:46;100796.78;;;24.32;53.27
41218;BME280;26950;50.960;7.138;2022-07-23T05:47:12;100807.53;;;24.32;53.39
41218;BME280;26950;50.960;7.138;2022-07-23T05:49:39;100804.00;;;24.30;53.04
41218;BME280;26950;50.960;7.138;2022-07-23T05:52:05;100814.47;;;24.42;52.48
41218;BME280;26950;50.960;7.138;2022-07-23T05:54:34;100816.97;;;24.48;52.29
41218;BME280;26950;50.960;7.138;2022-07-23T05:57:01;100811.50;;;24.53;52.24
41218;BME280;26950;50.960;7.138;2022-07-23T05:59:28;100816.97;;;24.48;52.00
41218;BME280;26950;50.960;7.138;2022-07-23T06:01:54;100814.41;;;24.43;52.18
41218;BME280;26950;50.960;7.138;2022-07-23T06:04:21;100810.78;;;24.46;52.04
41218;BME280;26950;50.960;7.138;2022-07-23T06:06:48;100819.66;;;24.48;51.62
41218;BME280;26950;50.960;7.138;2022-07-23T06:09:14;100810.69;;;24.49;51.56
41218;BME280;26950;50.960;7.138;2022-07-23T06:11:41;100812.53;;;24.47;51.68
41218;BME280;26950;50.960;7.138;2022-07-23T06:14:09;100816.88;;;24.53;51.63
41218;BME280;26950;50.960;7.138;2022-07-23T06:16:35;100819.41;;;24.57;51.45
41218;BME280;26950;50.960;7.138;2022-07-23T06:19:02;100811.34;;;24.59;51.54
41218;BME280;26950;50.960;7.138;2022-07-23T06:21:28;100818.34;;;24.63;51.14
41218;BME280;26950;50.960;7.138;2022-07-23T06:23:55;100821.75;;;24.69;51.09
41218;BME280;26950;50.960;7.138;2022-07-23T06:26:21;100819.06;;;24.69;51.04
41218;BME280;26950;50.960;7.138;2022-07-23T06:28:47;100834.13;;;24.75;51.29
41218;BME280;26950;50.960;7.138;2022-07-23T06:31:15;100829.56;;;24.79;51.03
41218;BME280;26950;50.960;7.138;2022-07-23T06:33:42;100829.34;;;24.86;50.72
41218;BME280;26950;50.960;7.138;2022-07-23T06:36:08;100824.91;;;24.85;50.24
41218;BME280;26950;50.960;7.138;2022-07-23T06:38:35;100830.22;;;24.87;50.17
41218;BME280;26950;50.960;7.138;2022-07-23T06:41:01;100828.25;;;24.93;49.63
41218;BME280;26950;50.960;7.138;2022-07-23T06:43:30;100826.56;;;24.91;49.59
41218;BME280;26950;50.960;7.138;2022-07-23T06:45:56;100832.81;;;24.91;49.33
41218;BME280;26950;50.960;7.138;2022-07-23T06:48:24;100832.75;;;24.93;49.18
41218;BME280;26950;50.960;7.138;2022-07-23T06:50:50;100828.25;;;24.93;49.11
41218;BME280;26950;50.960;7.138;2022-07-23T06:53:18;100834.44;;;24.97;48.65
41218;BME280;26950;50.960;7.138;2022-07-23T06:55:44;100833.34;;;25.04;48.77
41218;BME280;26950;50.960;7.138;2022-07-23T06:58:10;100835.06;;;25.08;48.62
41218;BME280;26950;50.960;7.138;2022-07-23T07:00:39;100837.56;;;25.14;48.38
41218;BME280;26950;50.960;7.138;2022-07-23T07:03:05;100840.91;;;25.22;48.23
41218;BME280;26950;50.960;7.138;2022-07-23T07:05:33;100844.34;;;25.27;48.30
41218;BME280;26950;50.960;7.138;2022-07-23T07:07:59;100844.06;;;25.37;48.23
41218;BME280;26950;50.960;7.138;2022-07-23T07:10:26;100846.75;;;25.37;48.31
41218;BME280;26950;50.960;7.138;2022-07-23T07:12:52;100841.69;;;25.55;47.81
41218;BME280;26950;50.960;7.138;2022-07-23T07:15:19;100842.06;;;25.12;48.23
41218;BME280;26950;50.960;7.138;2022-07-23T07:17:45;100847.19;;;25.51;47.86
41218;BME280;26950;50.960;7.138;2022-07-23T07:20:12;100854.63;;;25.72;47.43
41218;BME280;26950;50.960;7.138;2022-07-23T07:22:40;100849.16;;;25.75;48.04
41218;BME280;26950;50.960;7.138;2022-07-23T07:25:07;100857.16;;;25.78;48.06
41218;BME280;26950;50.960;7.138;2022-07-23T07:27:34;100854.38;;;26.09;47.15
41218;BME280;26950;50.960;7.138;2022-07-23T07:30:01;100848.09;;;26.88;46.02
41218;BME280;26950;50.960;7.138;2022-07-23T07:32:27;100841.63;;;28.33;43.13
41218;BME280;26950;50.960;7.138;2022-07-23T07:34:54;100849.31;;;29.05;41.33
41218;BME280;26950;50.960;7.138;2022-07-23T07:37:21;100843.34;;;29.17;40.63
41218;BME280;26950;50.960;7.138;2022-07-23T07:39:49;100856.03;;;29.36;40.19
41218;BME280;26950;50.960;7.138;2022-07-23T07:42:15;100859.59;;;29.75;39.29
41218;BME280;26950;50.960;7.138;2022-07-23T07:44:41;100857.78;;;29.37;39.45
41218;BME280;26950;50.960;7.138;2022-07-23T07:47:08;100858.53;;;29.20;40.21
41218;BME280;26950;50.960;7.138;2022-07-23T07:49:34;100859.09;;;29.67;38.15
41218;BME280;26950;50.960;7.138;2022-07-23T07:52:01;100859.78;;;29.90;37.70
41218;BME280;26950;50.960;7.138;2022-07-23T07:54:27;100859.91;;;29.49;38.57
41218;BME280;26950;50.960;7.138;2022-07-23T07:56:55;100858.81;;;29.14;39.34
41218;BME280;26950;50.960;7.138;2022-07-23T07:59:21;100867.72;;;29.16;39.29
41218;BME280;26950;50.960;7.138;2022-07-23T08:01:48;100867.19;;;29.08;39.94
41218;BME280;26950;50.960;7.138;2022-07-23T08:04:15;100872.88;;;29.01;39.79
41218;BME280;26950;50.960;7.138;2022-07-23T08:06:41;100867.53;;;29.20;39.19
41218;BME280;26950;50.960;7.138;2022-07-23T08:09:07;100866.25;;;28.46;39.65
41218;BME280;26950;50.960;7.138;2022-07-23T08:11:34;100877.47;;;28.79;39.99
41218;BME280;26950;50.960;7.138;2022-07-23T08:14:02;100874.63;;;28.82;39.84
41218;BME280;26950;50.960;7.138;2022-07-23T08:16:29;100881.84;;;28.82;39.73
41218;BME280;26950;50.960;7.138;2022-07-23T08:18:55;100881.88;;;28.16;40.73
41218;BME280;26950;50.960;7.138;2022-07-23T08:21:22;100885.84;;;28.29;40.09
41218;BME280;26950;50.960;7.138;2022-07-23T08:23:48;100882.81;;;27.93;40.63
41218;BME280;26950;50.960;7.138;2022-07-23T08:26:14;100881.06;;;27.92;40.88
41218;BME280;26950;50.960;7.138;2022-07-23T08:28:41;100883.13;;;28.07;40.60
41218;BME280;26950;50.960;7.138;2022-07-23T08:31:09;100887.53;;;27.88;41.38
41218;BME280;26950;50.960;7.138;2022-07-23T08:33:37;100889.19;;;27.90;41.16
41218;BME280;26950;50.960;7.138;2022-07-23T08:36:04;100894.25;;;29.67;38.34
41218;BME280;26950;50.960;7.138;2022-07-23T08:38:31;100893.00;;;31.17;35.78
41218;BME280;26950;50.960;7.138;2022-07-23T08:40:58;100896.00;;;31.13;35.37
41218;BME280;26950;50.960;7.138;2022-07-23T08:43:26;100894.75;;;30.49;36.02
41218;BME280;26950;50.960;7.138;2022-07-23T08:45:55;100902.94;;;29.74;36.90
41218;BME280;26950;50.960;7.138;2022-07-23T08:48:25;100904.22;;;29.26;37.53
41218;BME280;26950;50.960;7.138;2022-07-23T08:50:53;100899.94;;;29.80;36.76
41218;BME280;26950;50.960;7.138;2022-07-23T08:53:21;100899.56;;;29.69;37.26
41218;BME280;26950;50.960;7.138;2022-07-23T08:55:50;100898.31;;;29.57;36.59
41218;BME280;26950;50.960;7.138;2022-07-23T08:58:18;100894.50;;;29.41;37.42
41218;BME280;26950;50.960;7.138;2022-07-23T09:00:46;100897.63;;;28.92;38.16
41218;BME280;26950;50.960;7.138;2022-07-23T09:03:16;100901.03;;;29.16;37.76
41218;BME280;26950;50.960;7.138;2022-07-23T09:05:44;100914.94;;;29.27;37.21
41218;BME280;26950;50.960;7.138;2022-07-23T09:08:12;100905.53;;;29.17;37.47
41218;BME280;26950;50.960;7.138;2022-07-23T09:10:51;100909.38;;;28.69;38.16
41218;BME280;26950;50.960;7.138;2022-07-23T09:13:35;100909.31;;;28.71;38.79
41218;BME280;26950;50.960;7.138;2022-07-23T09:16:04;100908.25;;;28.75;38.63
41218;BME280;26950;50.960;7.138;2022-07-23T09:18:38;100905.56;;;29.16;38.08
41218;BME280;26950;50.960;7.138;2022-07-23T09:21:07;100911.19;;;29.32;37.31
41218;BME280;26950;50.960;7.138;2022-07-23T09:23:38;100907.41;;;28.95;37.83
41218;BME280;26950;50.960;7.138;2022-07-23T09:26:24;100906.06;;;28.63;37.98
41218;BME280;26950;50.960;7.138;2022-07-23T09:28:54;100910.84;;;28.34;38.98
41218;BME280;26950;50.960;7.138;2022-07-23T09:31:22;100913.97;;;28.45;39.08
41218;BME280;26950;50.960;7.138;2022-07-23T09:33:49;100910.03;;;28.32;39.16
41218;BME280;26950;50.960;7.138;2022-07-23T09:36:27;100913.72;;;27.61;39.71
41218;BME280;26950;50.960;7.138;2022-07-23T09:38:53;100914.25;;;28.16;39.21
41218;BME280;26950;50.960;7.138;2022-07-23T09:41:20;100915.31;;;28.35;39.47
41218;BME280;26950;50.960;7.138;2022-07-23T09:43:46;100921.78;;;28.31;39.48
41218;BME280;26950;50.960;7.138;2022-07-23T09:46:17;100931.09;;;28.22;38.75
41218;BME280;26950;50.960;7.138;2022-07-23T09:48:44;100925.28;;;28.33;39.19
41218;BME280;26950;50.960;7.138;2022-07-23T09:51:10;100919.56;;;28.41;38.34
41218;BME280;26950;50.960;7.138;2022-07-23T09:53:38;100924.66;;;28.48;38.92
41218;BME280;26950;50.960;7.138;2022-07-23T09:56:06;100916.97;;;28.60;37.81
41218;BME280;26950;50.960;7.138;2022-07-23T09:58:34;100915.13;;;28.82;37.60
41218;BME280;26950;50.960;7.138;2022-07-23T10:01:09;100912.72;;;28.96;36.93
41218;BME280;26950;50.960;7.138;2022-07-23T10:03:35;100907.75;;;29.08;36.95
41218;BME280;26950;50.960;7.138;2022-07-23T10:06:03;100911.56;;;28.82;37.52
41218;BME280;26950;50.960;7.138;2022-07-23T10:08:31;100906.22;;;28.80;37.71
41218;BME280;26950;50.960;7.138;2022-07-23T10:11:00;100911.56;;;28.60;37.84
41218;BME280;26950;50.960;7.138;2022-07-23T10:13:28;100912.47;;;28.38;37.69
41218;BME280;26950;50.960;7.138;2022-07-23T10:16:12;100909.97;;;28.56;37.77
41218;BME280;26950;50.960;7.138;2022-07-23T10:18:39;100905.25;;;28.61;37.58
41218;BME280;26950;50.960;7.138;2022-07-23T10:21:07;100907.19;;;28.57;37.54
41218;BME280;26950;50.960;7.138;2022-07-23T10:23:40;100899.03;;;28.59;37.40
41218;BME280;26950;50.960;7.138;2022-07-23T10:26:14;100894.66;;;28.76;37.54
41218;BME280;26950;50.960;7.138;2022-07-23T10:29:00;100885.59;;;28.77;36.36
41218;BME280;26950;50.960;7.138;2022-07-23T10:31:38;100889.50;;;28.50;37.33
41218;BME280;26950;50.960;7.138;2022-07-23T10:34:12;100889.69;;;28.45;37.78
41218;BME280;26950;50.960;7.138;2022-07-23T10:36:47;100893.78;;;28.56;37.58
41218;BME280;26950;50.960;7.138;2022-07-23T10:39:20;100887.41;;;28.57;37.30
41218;BME280;26950;50.960;7.138;2022-07-23T10:41:50;100898.50;;;28.71;37.10
41218;BME280;26950;50.960;7.138;2022-07-23T10:44:19;100886.66;;;28.95;36.13
41218;BME280;26950;50.960;7.138;2022-07-23T10:46:54;100888.72;;;28.68;37.07
41218;BME280;26950;50.960;7.138;2022-07-23T10:49:28;100891.94;;;28.98;37.29
41218;BME280;26950;50.960;7.138;2022-07-23T10:52:21;100893.50;;;29.43;36.08
41218;BME280;26950;50.960;7.138;2022-07-23T10:54:50;100884.81;;;29.76;35.40
41218;BME280;26950;50.960;7.138;2022-07-23T10:57:19;100880.13;;;29.98;35.21
41218;BME280;26950;50.960;7.138;2022-07-23T11:00:16;100878.56;;;30.30;33.78
41218;BME280;26950;50.960;7.138;2022-07-23T11:02:44;100888.22;;;30.53;33.88
41218;BME280;26950;50.960;7.138;2022-07-23T11:05:13;100879.31;;;30.51;32.08
41218;BME280;26950;50.960;7.138;2022-07-23T11:08:12;100876.03;;;30.45;32.52
41218;BME280;26950;50.960;7.138;2022-07-23T11:10:42;100869.31;;;29.98;32.53
41218;BME280;26950;50.960;7.138;2022-07-23T11:13:30;100879.78;;;30.59;32.19
41218;BME280;26950;50.960;7.138;2022-07-23T11:19:06;100879.22;;;31.05;31.34
41218;BME280;26950;50.960;7.138;2022-07-23T11:21:47;100875.97;;;30.98;30.38
41218;BME280;26950;50.960;7.138;2022-07-23T11:24:16;100877.09;;;31.11;31.12
41218;BME280;26950;50.960;7.138;2022-07-23T11:26:44;100872.66;;;30.93;31.21
41218;BME280;26950;50.960;7.138;2022-07-23T11:29:44;100875.41;;;31.26;31.11
41218;BME280;26950;50.960;7.138;2022-07-23T11:35:20;100865.53;;;30.91;30.47
41218;BME280;26950;50.960;7.138;2022-07-23T11:37:47;100873.97;;;31.19;29.22
41218;BME280;26950;50.960;7.138;2022-07-23T11:40:16;100859.34;;;31.39;29.28
41218;BME280;26950;50.960;7.138;2022-07-23T11:42:52;100867.41;;;31.40;29.70
41218;BME280;26950;50.960;7.138;2022-07-23T11:45:20;100876.59;;;31.38;29.70
41218;BME280;26950;50.960;7.138;2022-07-23T11:47:47;100874.53;;;31.26;30.28
41218;BME280;26950;50.960;7.138;2022-07-23T11:50:13;100873.91;;;31.54;29.93
41218;BME280;26950;50.960;7.138;2022-07-23T11:52:40;100866.53;;;31.40;30.26
41218;BME280;26950;50.960;7.138;2022-07-23T11:55:08;100869.53;;;30.83;30.46
41218;BME280;26950;50.960;7.138;2022-07-23T11:57:37;100865.19;;;31.14;30.67
41218;BME280;26950;50.960;7.138;2022-07-23T12:00:07;100868.59;;;31.17;30.51
41218;BME280;26950;50.960;7.138;2022-07-23T12:02:36;100863.28;;;31.16;30.64
41218;BME280;26950;50.960;7.138;2022-07-23T12:05:03;100864.09;;;31.18;30.68
41218;BME280;26950;50.960;7.138;2022-07-23T12:07:32;100861.09;;;31.23;30.71
41218;BME280;26950;50.960;7.138;2022-07-23T12:10:04;100857.94;;;31.14;29.21
41218;BME280;26950;50.960;7.138;2022-07-23T12:12:40;100861.31;;;30.85;30.67
41218;BME280;26950;50.960;7.138;2022-07-23T12:15:07;100859.03;;;30.77;31.09
41218;BME280;26950;50.960;7.138;2022-07-23T12:17:37;100861.50;;;30.82;31.17
41218;BME280;26950;50.960;7.138;2022-07-23T12:20:06;100863.06;;;30.86;31.17
41218;BME280;26950;50.960;7.138;2022-07-23T12:22:35;100865.53;;;30.91;31.20
41218;BME280;26950;50.960;7.138;2022-07-23T12:25:05;100861.19;;;30.88;31.18
41218;BME280;26950;50.960;7.138;2022-07-23T12:27:33;100864.22;;;30.82;31.39
41218;BME280;26950;50.960;7.138;2022-07-23T12:30:15;100861.63;;;30.96;30.92
41218;BME280;26950;50.960;7.138;2022-07-23T12:32:44;100864.94;;;30.68;30.50
41218;BME280;26950;50.960;7.138;2022-07-23T12:35:12;100854.78;;;30.89;30.59
41218;BME280;26950;50.960;7.138;2022-07-23T12:37:40;100852.19;;;30.87;31.03
41218;BME280;26950;50.960;7.138;2022-07-23T12:40:21;100852.72;;;30.94;30.94
41218;BME280;26950;50.960;7.138;2022-07-23T12:42:50;100860.13;;;30.91;30.21
41218;BME280;26950;50.960;7.138;2022-07-23T12:45:17;100857.97;;;30.62;30.81
41218;BME280;26950;50.960;7.138;2022-07-23T12:47:59;100858.56;;;30.69;31.71
41218;BME280;26950;50.960;7.138;2022-07-23T12:50:37;100870.63;;;30.62;31.13
41218;BME280;26950;50.960;7.138;2022-07-23T12:53:10;100866.31;;;30.58;30.72
41218;BME280;26950;50.960;7.138;2022-07-23T12:55:38;100861.88;;;30.57;30.90
41218;BME280;26950;50.960;7.138;2022-07-23T12:58:07;100868.94;;;30.59;31.64
41218;BME280;26950;50.960;7.138;2022-07-23T13:00:50;100870.25;;;30.70;31.68
41218;BME280;26950;50.960;7.138;2022-07-23T13:03:29;100870.25;;;30.70;30.76